Terminal Aerodrome Forecast
Issued by NWS

Home | Current Version | Previous Version | Text Only | Print | Product List | Glossary On
Versions: 1 2 3 4 5 6 7 8 9 10 11 12 13 14 15 16 17
000
FTUS44 KJAN 040544
TAFHKS
TAF
KHKS 040544Z 0406/0506 16005KT P6SM FEW040 BKN150
     FM041200 19006KT P6SM VCSH SCT020 BKN030 BKN060
     FM041600 21007KT 6SM -SHRA VCTS SCT030 BKN050CB
     FM041900 23008KT 5SM -TSRA SCT030 OVC050CB
     FM042200 19005KT 6SM -SHRA VCTS SCT020 BKN040CB=

USA.gov is the U.S. government's official web portal to all federal, state and local government web resources and services.